Anthem Of The Seas — C6BI7 — position and weather

sailwx.info

Track history (hours):
 
Tides and Currents Weather Stations Pressure Air Temp Water Temp Dewpoint Dewpoint Depression Visibility Wind Speed Wind Dir Waves Ship Positions

Anthem Of The Seas

Last reported at 2017-Apr-23 10:56 UTC. Time now 2017-Apr-24 21:02 UTC.
Position N 14°37' W 061°10'.

Length 348 m; draft 8.8 m.

Type: Passenger vessel. MMSI: 311000274.

Date/timePositionNaut miles runAvg speedWind from/ knotsBaromVisibWave heightAir tempDewpointWater temp
2017-Apr-23 10:56N 14°37' W 061°10'10914.3
2017-Apr-23 03:19N 16°12' W 062°06'412.2
2017-Apr-23 03:00N 16°15' W 062°06'612.4
2017-Apr-23 02:30N 16°22' W 062°05'612.3
2017-Apr-23 02:00N 16°28' W 062°04'612.3
2017-Apr-23 01:30N 16°34' W 062°03'612.2
2017-Apr-23 01:00N 16°40' W 062°03'612.0
2017-Apr-23 00:30N 16°46' W 062°03'611.7
2017-Apr-23 00:00N 16°52' W 062°04'611.6
2017-Apr-22 23:30N 16°57' W 062°06'611.7
2017-Apr-22 23:00N 17°03' W 062°07'510.7
2017-Apr-22 22:30N 17°08' W 062°06'611.7
2017-Apr-22 22:00N 17°09' W 062°00'611.3
2017-Apr-22 21:30N 17°08' W 061°54'3 6.3
2017-Apr-22 21:00N 17°07' W 061°51'0 0.5
2017-Apr-22 20:29N 17°07' W 061°51'0 0.0
2017-Apr-22 19:59N 17°07' W 061°51'0 0.0
2017-Apr-22 19:29N 17°07' W 061°51'0 0.0
2017-Apr-22 18:59N 17°07' W 061°51'0 0.0
2017-Apr-22 18:29N 17°07' W 061°51'0 0.0
2017-Apr-22 17:59N 17°07' W 061°51'0 0.0
2017-Apr-22 17:29N 17°07' W 061°51'0 0.0
2017-Apr-22 16:59N 17°07' W 061°51'0 0.0
2017-Apr-22 16:29N 17°07' W 061°51'0 0.0
2017-Apr-22 15:59N 17°07' W 061°51'0 0.0
2017-Apr-22 15:29N 17°07' W 061°51'0 0.0
2017-Apr-22 14:59N 17°07' W 061°51'0 0.0
2017-Apr-22 14:29N 17°07' W 061°51'0 0.0
2017-Apr-22 13:29N 17°07' W 061°51'0 0.0
2017-Apr-22 12:59N 17°07' W 061°51'0 0.0
2017-Apr-22 12:29N 17°07' W 061°51'0 0.0
2017-Apr-22 11:59N 17°07' W 061°51'0 0.0
2017-Apr-22 11:29N 17°07' W 061°51'0 0.0
2017-Apr-22 10:59N 17°07' W 061°51'1 1.3
2017-Apr-22 10:30N 17°07' W 061°51'4 8.5
2017-Apr-22 10:00N 17°09' W 061°56'4 8.2
2017-Apr-22 09:30N 17°11' W 061°60'4 8.1
2017-Apr-22 09:00N 17°12' W 062°03'4 8.2
2017-Apr-22 08:30N 17°14' W 062°07'4 8.0
2017-Apr-22 08:00N 17°16' W 062°11'4 7.9
2017-Apr-22 07:30N 17°19' W 062°14'4 7.8
2017-Apr-22 07:00N 17°21' W 062°17'4 8.0
2017-Apr-22 06:30N 17°24' W 062°20'4 7.9
2017-Apr-22 06:00N 17°26' W 062°24'4 8.0
2017-Apr-22 05:30N 17°29' W 062°27'4 8.1
2017-Apr-22 05:00N 17°32' W 062°30'4 8.3
2017-Apr-22 04:30N 17°34' W 062°33'4 8.4
2017-Apr-22 04:00N 17°37' W 062°37'4 8.6
2017-Apr-22 03:30N 17°40' W 062°40'6 8.4
2017-Apr-22 02:49N 17°43' W 062°45'3 8.3
2017-Apr-22 02:29N 17°44' W 062°48'6 8.5
2017-Apr-22 01:45N 17°47' W 062°54'3 8.4
2017-Apr-22 01:26N 17°48' W 062°56'4 8.3
2017-Apr-22 00:59N 17°50' W 062°60'4 8.2
2017-Apr-22 00:30N 17°52' W 063°03'4 7.3
2017-Apr-22 00:00N 17°54' W 063°06'4 7.7
2017-Apr-21 23:30N 17°58' W 063°06'4 7.2
2017-Apr-21 23:00N 18°00' W 063°03'0 0.9
2017-Apr-21 22:29N 18°01' W 063°03'0 0.0
2017-Apr-21 17:32N 18°01' W 063°03'0 0.0
2017-Apr-21 14:21N 18°01' W 063°03'5 5.9
2017-Apr-21 13:30N 18°00' W 063°08'816.1
2017-Apr-21 12:59N 18°01' W 063°17'916.9
2017-Apr-21 12:27N 18°02' W 063°26'1016.8
2017-Apr-21 11:53N 18°03' W 063°36'717.0
2017-Apr-21 11:28N 18°04' W 063°44'4817.2
2017-Apr-21 08:39N 18°10' W 064°34'318.0
2017-Apr-21 08:30N 18°10' W 064°37'918.1
2017-Apr-21 08:00N 18°11' W 064°46'918.2
2017-Apr-21 07:30N 18°13' W 064°56'6217.4
2017-Apr-21 03:58N 18°32' W 065°57'817.4
2017-Apr-21 03:30N 18°31' W 066°06'4 7.0
2017-Apr-21 03:00N 18°27' W 066°07'0 0.8
2017-Apr-21 02:29N 18°28' W 066°07'  
2017-Apr-17 20:54N 40°27' W 073°49'4 9.9
2017-Apr-17 20:30N 40°29' W 073°54'612.1
2017-Apr-17 20:00N 40°31' W 074°01'815.4
2017-Apr-17 19:30N 40°39' W 074°03'1 2.2
2017-Apr-17 18:59N 40°40' W 074°04'0 0.0
2017-Apr-17 18:29N 40°40' W 074°04'0 0.0
2017-Apr-17 17:59N 40°40' W 074°04'0 0.0
2017-Apr-17 17:29N 40°40' W 074°04'0 0.0
2017-Apr-17 16:59N 40°40' W 074°04'0 0.0
2017-Apr-17 16:29N 40°40' W 074°04'0 0.0
2017-Apr-17 15:59N 40°40' W 074°04'0 0.0
2017-Apr-17 15:29N 40°40' W 074°04'0 0.0
2017-Apr-17 14:59N 40°40' W 074°04'0 0.0
2017-Apr-17 13:59N 40°40' W 074°04'0 0.0
2017-Apr-17 13:29N 40°40' W 074°04'0 0.0
2017-Apr-17 12:59N 40°40' W 074°04'0 0.0
2017-Apr-17 12:29N 40°40' W 074°04'0 0.0
2017-Apr-17 11:59N 40°40' W 074°04'0 0.0
2017-Apr-17 11:29N 40°40' W 074°04'0 0.0
2017-Apr-17 10:59N 40°40' W 074°04'0 0.0
2017-Apr-17 10:29N 40°40' W 074°04'0 0.1
2017-Apr-17 10:00N 40°40' W 074°04'2 4.6
2017-Apr-17 09:30N 40°38' W 074°03'713.6
2017-Apr-17 09:01N 40°31' W 074°00'611.7
2017-Apr-17 08:30N 40°29' W 073°53'5 9.8
2017-Apr-17 08:00N 40°26' W 073°48'5 9.9
2017-Apr-17 07:30N 40°21' W 073°46'510.1
2017-Apr-17 07:00N 40°16' W 073°46'1711.0
2017-Apr-17 05:26N 39°59' W 073°43'611.9
2017-Apr-17 04:58N 39°54' W 073°42'611.9
2017-Apr-17 04:26N 39°47' W 073°40'511.5
2017-Apr-17 03:59N 39°42' W 073°40'611.6
2017-Apr-17 03:29N 39°36' W 073°41'611.8
2017-Apr-17 02:57N 39°30' W 073°43'612.4
2017-Apr-17 02:27N 39°24' W 073°44'612.5
2017-Apr-17 02:00N 39°19' W 073°46'814.9
2017-Apr-17 01:29N 39°11' W 073°48'6614.6
2017-Apr-16 21:00N 38°06' W 074°00'63117.5 210 / 281020.3 5.4 18.0 10.0
2017-Apr-15 09:00N 27°48' W 076°30'   080 / 371027.410.8 23.0 24.0
Track history (hours):
 
Tides and Currents Weather Stations Pressure Air Temp Water Temp Dewpoint Dewpoint Depression Visibility Wind Speed Wind Dir Waves Ship Positions

Anthem Of The Seas

Last reported at 2017-Apr-23 10:56 UTC. Time now 2017-Apr-24 21:02 UTC.
Position N 14°37' W 061°10'.

Length 348 m; draft 8.8 m.

Type: Passenger vessel. MMSI: 311000274.

Date/timePositionNaut miles runAvg speedWind from/ knotsBaromVisibWave heightAir tempDewpointWater temp
2017-Apr-23 10:56N 14°37' W 061°10'10914.3
2017-Apr-23 03:19N 16°12' W 062°06'412.2
2017-Apr-23 03:00N 16°15' W 062°06'612.4
2017-Apr-23 02:30N 16°22' W 062°05'612.3
2017-Apr-23 02:00N 16°28' W 062°04'612.3
2017-Apr-23 01:30N 16°34' W 062°03'612.2
2017-Apr-23 01:00N 16°40' W 062°03'612.0
2017-Apr-23 00:30N 16°46' W 062°03'611.7
2017-Apr-23 00:00N 16°52' W 062°04'611.6
2017-Apr-22 23:30N 16°57' W 062°06'611.7
2017-Apr-22 23:00N 17°03' W 062°07'510.7
2017-Apr-22 22:30N 17°08' W 062°06'611.7
2017-Apr-22 22:00N 17°09' W 062°00'611.3
2017-Apr-22 21:30N 17°08' W 061°54'3 6.3
2017-Apr-22 21:00N 17°07' W 061°51'0 0.5
2017-Apr-22 20:29N 17°07' W 061°51'0 0.0
2017-Apr-22 19:59N 17°07' W 061°51'0 0.0
2017-Apr-22 19:29N 17°07' W 061°51'0 0.0
2017-Apr-22 18:59N 17°07' W 061°51'0 0.0
2017-Apr-22 18:29N 17°07' W 061°51'0 0.0
2017-Apr-22 17:59N 17°07' W 061°51'0 0.0
2017-Apr-22 17:29N 17°07' W 061°51'0 0.0
2017-Apr-22 16:59N 17°07' W 061°51'0 0.0
2017-Apr-22 16:29N 17°07' W 061°51'0 0.0
2017-Apr-22 15:59N 17°07' W 061°51'0 0.0
2017-Apr-22 15:29N 17°07' W 061°51'0 0.0
2017-Apr-22 14:59N 17°07' W 061°51'0 0.0
2017-Apr-22 14:29N 17°07' W 061°51'0 0.0
2017-Apr-22 13:29N 17°07' W 061°51'0 0.0
2017-Apr-22 12:59N 17°07' W 061°51'0 0.0
2017-Apr-22 12:29N 17°07' W 061°51'0 0.0
2017-Apr-22 11:59N 17°07' W 061°51'0 0.0
2017-Apr-22 11:29N 17°07' W 061°51'0 0.0
2017-Apr-22 10:59N 17°07' W 061°51'1 1.3
2017-Apr-22 10:30N 17°07' W 061°51'4 8.5
2017-Apr-22 10:00N 17°09' W 061°56'4 8.2
2017-Apr-22 09:30N 17°11' W 061°60'4 8.1
2017-Apr-22 09:00N 17°12' W 062°03'4 8.2
2017-Apr-22 08:30N 17°14' W 062°07'4 8.0
2017-Apr-22 08:00N 17°16' W 062°11'4 7.9
2017-Apr-22 07:30N 17°19' W 062°14'4 7.8
2017-Apr-22 07:00N 17°21' W 062°17'4 8.0
2017-Apr-22 06:30N 17°24' W 062°20'4 7.9
2017-Apr-22 06:00N 17°26' W 062°24'4 8.0
2017-Apr-22 05:30N 17°29' W 062°27'4 8.1
2017-Apr-22 05:00N 17°32' W 062°30'4 8.3
2017-Apr-22 04:30N 17°34' W 062°33'4 8.4
2017-Apr-22 04:00N 17°37' W 062°37'4 8.6
2017-Apr-22 03:30N 17°40' W 062°40'6 8.4
2017-Apr-22 02:49N 17°43' W 062°45'3 8.3
2017-Apr-22 02:29N 17°44' W 062°48'6 8.5
2017-Apr-22 01:45N 17°47' W 062°54'3 8.4
2017-Apr-22 01:26N 17°48' W 062°56'4 8.3
2017-Apr-22 00:59N 17°50' W 062°60'4 8.2
2017-Apr-22 00:30N 17°52' W 063°03'4 7.3
2017-Apr-22 00:00N 17°54' W 063°06'4 7.7
2017-Apr-21 23:30N 17°58' W 063°06'4 7.2
2017-Apr-21 23:00N 18°00' W 063°03'0 0.9
2017-Apr-21 22:29N 18°01' W 063°03'0 0.0
2017-Apr-21 17:32N 18°01' W 063°03'0 0.0
2017-Apr-21 14:21N 18°01' W 063°03'5 5.9
2017-Apr-21 13:30N 18°00' W 063°08'816.1
2017-Apr-21 12:59N 18°01' W 063°17'916.9
2017-Apr-21 12:27N 18°02' W 063°26'1016.8
2017-Apr-21 11:53N 18°03' W 063°36'717.0
2017-Apr-21 11:28N 18°04' W 063°44'4817.2
2017-Apr-21 08:39N 18°10' W 064°34'318.0
2017-Apr-21 08:30N 18°10' W 064°37'918.1
2017-Apr-21 08:00N 18°11' W 064°46'918.2
2017-Apr-21 07:30N 18°13' W 064°56'6217.4
2017-Apr-21 03:58N 18°32' W 065°57'817.4
2017-Apr-21 03:30N 18°31' W 066°06'4 7.0
2017-Apr-21 03:00N 18°27' W 066°07'0 0.8
2017-Apr-21 02:29N 18°28' W 066°07'  
2017-Apr-17 20:54N 40°27' W 073°49'4 9.9
2017-Apr-17 20:30N 40°29' W 073°54'612.1
2017-Apr-17 20:00N 40°31' W 074°01'815.4
2017-Apr-17 19:30N 40°39' W 074°03'1 2.2
2017-Apr-17 18:59N 40°40' W 074°04'0 0.0
2017-Apr-17 18:29N 40°40' W 074°04'0 0.0
2017-Apr-17 17:59N 40°40' W 074°04'0 0.0
2017-Apr-17 17:29N 40°40' W 074°04'0 0.0
2017-Apr-17 16:59N 40°40' W 074°04'0 0.0
2017-Apr-17 16:29N 40°40' W 074°04'0 0.0
2017-Apr-17 15:59N 40°40' W 074°04'0 0.0
2017-Apr-17 15:29N 40°40' W 074°04'0 0.0
2017-Apr-17 14:59N 40°40' W 074°04'0 0.0
2017-Apr-17 13:59N 40°40' W 074°04'0 0.0
2017-Apr-17 13:29N 40°40' W 074°04'0 0.0
2017-Apr-17 12:59N 40°40' W 074°04'0 0.0
2017-Apr-17 12:29N 40°40' W 074°04'0 0.0
2017-Apr-17 11:59N 40°40' W 074°04'0 0.0
2017-Apr-17 11:29N 40°40' W 074°04'0 0.0
2017-Apr-17 10:59N 40°40' W 074°04'0 0.0
2017-Apr-17 10:29N 40°40' W 074°04'0 0.1
2017-Apr-17 10:00N 40°40' W 074°04'2 4.6
2017-Apr-17 09:30N 40°38' W 074°03'713.6
2017-Apr-17 09:01N 40°31' W 074°00'611.7
2017-Apr-17 08:30N 40°29' W 073°53'5 9.8
2017-Apr-17 08:00N 40°26' W 073°48'5 9.9
2017-Apr-17 07:30N 40°21' W 073°46'510.1
2017-Apr-17 07:00N 40°16' W 073°46'1711.0
2017-Apr-17 05:26N 39°59' W 073°43'611.9
2017-Apr-17 04:58N 39°54' W 073°42'611.9
2017-Apr-17 04:26N 39°47' W 073°40'511.5
2017-Apr-17 03:59N 39°42' W 073°40'611.6
2017-Apr-17 03:29N 39°36' W 073°41'611.8
2017-Apr-17 02:57N 39°30' W 073°43'612.4
2017-Apr-17 02:27N 39°24' W 073°44'612.5
2017-Apr-17 02:00N 39°19' W 073°46'814.9
2017-Apr-17 01:29N 39°11' W 073°48'6614.6
2017-Apr-16 21:00N 38°06' W 074°00'63117.5 210 / 281020.3 5.4 18.0 10.0
2017-Apr-15 09:00N 27°48' W 076°30'   080 / 371027.410.8 23.0 24.0

Dump ship's entire track history